Time;durP1;ratioP1;P1;durP2;ratioP2;P2;SDS_P1;SDS_P2;PMS_P1;PMS_P2;Temp;Humidity;BMP_temperature;BMP_pressure;BME280_temperature;BME280_humidity;BME280_pressure;Samples;Min_cycle;Max_cycle;Signal;HPM_P1;HPM_P2
2022/08/03 00:01:28;;;;;;;;;;;;;;;18.82;91.19;95764.66;10526833;28;1975;-69
2022/08/03 00:06:32;;;;;;;;;;;;;;;18.73;91.09;95755.72;10526487;28;1764;-69
2022/08/03 00:11:40;;;;;;;;;;;;;;;18.64;91.58;95753.81;10523181;28;2012;-69
2022/08/03 00:16:43;;;;;;;;;;;;;;;18.63;91.45;95756.84;10525482;28;1883;-70
2022/08/03 00:21:47;;;;;;;;;;;;;;;18.61;91.77;95764.53;10522395;28;1824;-70
2022/08/03 00:26:51;;;;;;;;;;;;;;;18.52;92.51;95756.41;10524972;28;1983;-70
2022/08/03 00:31:55;;;;;;;;;;;;;;;18.51;92.91;95748.53;10523919;28;1924;-70
2022/08/03 00:37:02;;;;;;;;;;;;;;;18.40;93.72;95752.75;10528183;28;1783;-74
2022/08/03 00:42:06;;;;;;;;;;;;;;;18.40;94.54;95752.75;10526316;28;1989;-70
2022/08/03 00:47:10;;;;;;;;;;;;;;;18.42;94.57;95755.94;10522970;28;2089;-70
2022/08/03 00:52:13;;;;;;;;;;;;;;;18.29;95.24;95746.84;10524954;28;1984;-70
2022/08/03 00:57:17;;;;;;;;;;;;;;;18.28;96.93;95750.69;10557545;27;1988;-71
2022/08/03 01:02:21;;;;;;;;;;;;;;;18.28;96.04;95748.78;10524516;28;2002;-71
2022/08/03 01:07:25;;;;;;;;;;;;;;;18.19;96.72;95752.63;10523351;28;2090;-73
2022/08/03 01:12:30;;;;;;;;;;;;;;;18.15;96.77;95746.25;10523047;28;1962;-77
2022/08/03 01:17:34;;;;;;;;;;;;;;;18.07;97.64;95739.69;10525633;28;1921;-70
2022/08/03 01:22:49;;;;;;;;;;;;;;;18.04;97.44;95738.41;10522548;28;2066;-71
2022/08/03 01:27:56;;;;;;;;;;;;;;;17.99;98.07;95733.13;10541209;28;1958;-70
2022/08/03 01:33:01;;;;;;;;;;;;;;;17.95;98.51;95734.09;10523234;28;1927;-70
2022/08/03 01:38:13;;;;;;;;;;;;;;;18.03;98.88;95734.09;10525996;28;1961;-70
2022/08/03 01:43:32;;;;;;;;;;;;;;;17.87;98.83;95729.44;10534851;28;1990;-70
2022/08/03 01:48:55;;;;;;;;;;;;;;;17.92;98.42;95723.84;10524328;28;2017;-70
2022/08/03 01:53:59;;;;;;;;;;;;;;;17.94;97.75;95727.88;10520739;28;2117;-71
2022/08/03 01:59:03;;;;;;;;;;;;;;;17.89;97.00;95725.31;10523865;28;2041;-69
2022/08/03 02:04:06;;;;;;;;;;;;;;;17.92;97.25;95721.94;10519834;28;2093;-70
2022/08/03 02:09:10;;;;;;;;;;;;;;;17.88;96.57;95722.88;10556494;27;1933;-68
2022/08/03 02:14:14;;;;;;;;;;;;;;;17.77;97.04;95725.94;10526814;28;1961;-69
2022/08/03 02:19:18;;;;;;;;;;;;;;;17.74;97.27;95721.13;10521894;28;1933;-69
2022/08/03 02:24:22;;;;;;;;;;;;;;;17.71;97.51;95727.22;10522007;28;2055;-69
2022/08/03 02:29:25;;;;;;;;;;;;;;;17.70;97.53;95731.03;10522824;28;1973;-69
2022/08/03 02:34:42;;;;;;;;;;;;;;;17.69;96.58;95729.44;10524516;28;2453;-70
2022/08/03 02:39:46;;;;;;;;;;;;;;;17.57;97.27;95726.56;10535997;28;1965;-72
2022/08/03 02:44:49;;;;;;;;;;;;;;;17.55;97.81;95728.78;10556859;27;1603;-70
2022/08/03 02:49:53;;;;;;;;;;;;;;;17.43;97.65;95732.16;10524242;28;1914;-69
2022/08/03 02:54:57;;;;;;;;;;;;;;;17.29;98.64;95731.47;10519415;28;1965;-70
2022/08/03 03:00:00;;;;;;;;;;;;;;;17.25;99.26;95728.59;10553447;28;1889;-70
2022/08/03 03:05:04;;;;;;;;;;;;;;;17.21;99.94;95733.06;10524110;28;1918;-70
2022/08/03 03:10:28;;;;;;;;;;;;;;;17.18;100.00;95731.00;10525082;28;1913;-70
2022/08/03 03:15:34;;;;;;;;;;;;;;;17.14;100.00;95724.56;10529084;28;2091;-72
2022/08/03 03:20:37;;;;;;;;;;;;;;;17.07;100.00;95724.25;10528965;28;1954;-70
2022/08/03 03:25:41;;;;;;;;;;;;;;;16.99;100.00;95720.41;10528792;28;2031;-69
2022/08/03 03:30:44;;;;;;;;;;;;;;;17.01;100.00;95725.50;10528708;28;2038;-70
2022/08/03 03:35:56;;;;;;;;;;;;;;;16.92;100.00;95721.94;10528970;28;1969;-71
2022/08/03 03:40:59;;;;;;;;;;;;;;;16.91;100.00;95725.78;10527371;28;1894;-70
2022/08/03 03:46:03;;;;;;;;;;;;;;;17.04;100.00;95730.28;10527321;28;1998;-70
2022/08/03 03:51:07;;;;;;;;;;;;;;;17.01;100.00;95733.66;10527064;28;1941;-68
2022/08/03 03:56:10;;;;;;;;;;;;;;;17.01;100.00;95741.81;10562691;27;1886;-70
2022/08/03 04:01:14;;;;;;;;;;;;;;;16.96;100.00;95736.50;10527666;28;2032;-71
2022/08/03 04:11:38;;;;;;;;;;;;;;;17.21;100.00;95741.22;10556594;27;1984;-71
2022/08/03 04:16:58;;;;;;;;;;;;;;;17.45;99.38;95735.34;10528057;28;1943;-70
2022/08/03 04:22:02;;;;;;;;;;;;;;;17.75;97.56;95732.81;10523687;28;1768;-71
2022/08/03 04:27:07;;;;;;;;;;;;;;;18.16;95.21;95740.47;10560083;27;1802;-71
2022/08/03 04:32:11;;;;;;;;;;;;;;;18.47;92.57;95739.44;10524437;28;1967;-70
2022/08/03 04:37:15;;;;;;;;;;;;;;;18.80;91.08;95737.75;10525331;28;1848;-70
2022/08/03 04:42:18;;;;;;;;;;;;;;;19.09;89.05;95739.72;10524605;28;1779;-70
2022/08/03 04:47:22;;;;;;;;;;;;;;;19.33;87.30;95741.81;10527093;28;1795;-70
2022/08/03 04:52:26;;;;;;;;;;;;;;;19.64;85.69;95741.47;10526804;28;1914;-70
2022/08/03 04:57:30;;;;;;;;;;;;;;;19.86;83.91;95748.53;10527199;28;1903;-70
2022/08/03 05:02:34;;;;;;;;;;;;;;;20.19;81.44;95747.78;10527104;28;1930;-70
2022/08/03 05:07:37;;;;;;;;;;;;;;;20.50;79.78;95750.84;10540165;28;1826;-70
2022/08/03 05:12:41;;;;;;;;;;;;;;;20.72;77.34;95754.31;10523592;28;1981;-71
2022/08/03 05:17:44;;;;;;;;;;;;;;;20.94;74.34;95759.38;10527099;28;1919;-70
2022/08/03 05:22:47;;;;;;;;;;;;;;;21.27;72.34;95753.78;10522512;28;1839;-70
2022/08/03 05:27:52;;;;;;;;;;;;;;;21.40;71.09;95765.53;10524006;28;2123;-70
2022/08/03 05:32:55;;;;;;;;;;;;;;;21.66;69.76;95767.91;10524390;28;1977;-70
2022/08/03 05:37:58;;;;;;;;;;;;;;;21.99;67.84;95767.72;10524798;28;1815;-70
2022/08/03 05:43:02;;;;;;;;;;;;;;;22.43;66.06;95772.50;10523840;28;1851;-71
2022/08/03 05:48:06;;;;;;;;;;;;;;;22.45;65.25;95764.72;10522260;28;1798;-71
2022/08/03 05:53:09;;;;;;;;;;;;;;;22.90;62.43;95758.88;10531799;28;1883;-71
2022/08/03 05:58:13;;;;;;;;;;;;;;;22.86;62.12;95757.97;10531582;28;1870;-71
2022/08/03 06:03:16;;;;;;;;;;;;;;;23.32;60.41;95761.88;10523837;28;1890;-71
2022/08/03 06:08:23;;;;;;;;;;;;;;;23.57;58.62;95765.22;10520470;28;1828;-71
2022/08/03 06:13:27;;;;;;;;;;;;;;;23.80;57.49;95759.09;10521291;28;1989;-70
2022/08/03 06:18:32;;;;;;;;;;;;;;;23.69;58.08;95756.91;10523303;28;1928;-71
2022/08/03 06:23:35;;;;;;;;;;;;;;;23.97;57.27;95769.63;10535038;28;1868;-71
2022/08/03 06:28:57;;;;;;;;;;;;;;;24.35;55.06;95770.84;10554472;27;1809;-71
2022/08/03 06:34:03;;;;;;;;;;;;;;;24.47;54.47;95778.94;10522794;28;1919;-71
2022/08/03 06:39:27;;;;;;;;;;;;;;;24.21;53.86;95780.34;10534269;28;1767;-70
2022/08/03 06:44:31;;;;;;;;;;;;;;;23.94;54.67;95771.16;10522186;28;1815;-71
2022/08/03 06:49:36;;;;;;;;;;;;;;;23.97;55.41;95773.19;10521135;28;1890;-72
2022/08/03 06:54:40;;;;;;;;;;;;;;;24.35;54.39;95770.84;10520920;28;1918;-71
2022/08/03 06:59:43;;;;;;;;;;;;;;;24.34;52.63;95774.75;10520710;28;1919;-71
2022/08/03 07:05:07;;;;;;;;;;;;;;;24.44;54.22;95780.47;10519989;28;1974;-71
2022/08/03 07:10:11;;;;;;;;;;;;;;;24.36;53.09;95777.91;10520018;28;1800;-72
2022/08/03 07:15:17;;;;;;;;;;;;;;;24.75;51.65;95779.50;10521321;28;1878;-71
2022/08/03 07:20:40;;;;;;;;;;;;;;;24.79;51.50;95769.34;10520715;28;1851;-69
2022/08/03 07:25:44;;;;;;;;;;;;;;;24.60;52.29;95772.13;10519935;28;1961;-70
2022/08/03 07:30:47;;;;;;;;;;;;;;;24.91;52.67;95767.56;10519793;28;1901;-70
2022/08/03 07:35:51;;;;;;;;;;;;;;;25.06;52.74;95761.97;10521432;28;1845;-71
2022/08/03 07:40:55;;;;;;;;;;;;;;;25.52;51.64;95775.72;10526155;28;1922;-69
2022/08/03 07:45:58;;;;;;;;;;;;;;;26.14;49.68;95764.41;10520828;28;2563;-72
2022/08/03 07:51:04;;;;;;;;;;;;;;;26.52;48.18;95757.00;10521427;28;1913;-71
2022/08/03 07:56:08;;;;;;;;;;;;;;;26.03;47.85;95763.47;10523459;28;1843;-71
2022/08/03 08:01:13;;;;;;;;;;;;;;;26.08;48.84;95755.69;10525449;28;2235;-69
2022/08/03 08:06:18;;;;;;;;;;;;;;;26.35;47.71;95758.38;10509213;28;1823;-71
2022/08/03 08:11:22;;;;;;;;;;;;;;;25.84;48.50;95751.44;10525779;28;1914;-70
2022/08/03 08:16:25;;;;;;;;;;;;;;;25.86;47.93;95760.09;10528163;28;1843;-70
2022/08/03 08:21:29;;;;;;;;;;;;;;;26.64;47.26;95745.72;10528209;28;1782;-71
2022/08/03 08:26:53;;;;;;;;;;;;;;;26.66;45.56;95754.44;10527885;28;1756;-70
2022/08/03 08:31:57;;;;;;;;;;;;;;;27.08;44.37;95745.78;10526565;28;1922;-70
2022/08/03 08:37:00;;;;;;;;;;;;;;;27.63;43.62;95750.56;10529601;28;1811;-70
2022/08/03 08:42:04;;;;;;;;;;;;;;;27.40;43.31;95735.00;10527951;28;1776;-72
2022/08/03 08:47:07;;;;;;;;;;;;;;;27.17;42.06;95737.22;10528518;28;1883;-71
2022/08/03 08:52:10;;;;;;;;;;;;;;;26.90;43.33;95733.75;10526654;28;1985;-71
2022/08/03 08:57:28;;;;;;;;;;;;;;;27.02;41.85;95729.94;10543285;28;1814;-71
2022/08/03 09:02:45;;;;;;;;;;;;;;;27.78;41.70;95730.16;10521308;28;2003;-72
2022/08/03 09:07:48;;;;;;;;;;;;;;;27.79;41.44;95728.97;10525339;28;1846;-71
2022/08/03 09:12:51;;;;;;;;;;;;;;;28.35;39.43;95730.44;10525760;28;1947;-71
2022/08/03 09:17:55;;;;;;;;;;;;;;;28.27;38.70;95731.59;10524770;28;1882;-70
2022/08/03 09:22:58;;;;;;;;;;;;;;;28.21;40.22;95725.63;10515996;28;2082;-71
2022/08/03 09:28:02;;;;;;;;;;;;;;;28.15;37.08;95731.91;10527089;28;2180;-70
2022/08/03 09:33:05;;;;;;;;;;;;;;;27.99;38.57;95713.72;10526548;28;1971;-71
2022/08/03 09:38:10;;;;;;;;;;;;;;;28.54;36.09;95724.59;10537778;28;1882;-71
2022/08/03 09:43:16;;;;;;;;;;;;;;;28.47;34.18;95724.56;10525765;28;2414;-71
2022/08/03 09:48:20;;;;;;;;;;;;;;;28.71;33.99;95719.50;10521348;28;2010;-71
2022/08/03 09:53:23;;;;;;;;;;;;;;;28.96;34.97;95717.59;10524003;28;1917;-71
2022/08/03 09:58:27;;;;;;;;;;;;;;;28.95;34.12;95727.06;10520520;28;1681;-73
2022/08/03 10:03:30;;;;;;;;;;;;;;;29.13;33.04;95715.19;10539695;28;1914;-70
2022/08/03 10:08:33;;;;;;;;;;;;;;;29.16;33.02;95714.44;10522277;28;2063;-70
2022/08/03 10:13:37;;;;;;;;;;;;;;;29.13;33.58;95712.44;10523237;28;2442;-71
2022/08/03 10:18:41;;;;;;;;;;;;;;;29.15;33.89;95715.63;10518909;28;1868;-70
2022/08/03 10:23:44;;;;;;;;;;;;;;;28.98;31.53;95706.13;10520414;28;1854;-71
2022/08/03 10:28:48;;;;;;;;;;;;;;;28.88;32.01;95704.88;10523787;28;1894;-71
2022/08/03 10:33:52;;;;;;;;;;;;;;;29.14;32.31;95700.19;10523199;28;1973;-71
2022/08/03 10:38:55;;;;;;;;;;;;;;;29.06;32.43;95700.19;10522651;28;1874;-70
2022/08/03 10:43:59;;;;;;;;;;;;;;;29.06;29.44;95699.38;10522182;28;1842;-70
2022/08/03 10:49:03;;;;;;;;;;;;;;;29.52;29.53;95696.63;10522627;28;1791;-71
2022/08/03 10:54:09;;;;;;;;;;;;;;;29.79;29.54;95682.31;10521543;28;1919;-72
2022/08/03 10:59:14;;;;;;;;;;;;;;;30.91;27.58;95678.63;10524631;28;1767;-71
2022/08/03 11:04:30;;;;;;;;;;;;;;;30.53;27.06;95677.66;10525413;28;1962;-71
2022/08/03 11:09:34;;;;;;;;;;;;;;;31.34;26.61;95664.41;10525101;28;1799;-73
2022/08/03 11:14:37;;;;;;;;;;;;;;;31.18;25.60;95674.06;10519981;28;1914;-71
2022/08/03 11:19:41;;;;;;;;;;;;;;;31.31;25.06;95670.81;10522320;28;1871;-74
2022/08/03 11:25:00;;;;;;;;;;;;;;;31.48;23.92;95659.50;10521738;28;1775;-71
2022/08/03 11:30:04;;;;;;;;;;;;;;;31.12;24.10;95666.56;10520510;28;1826;-71
2022/08/03 11:35:07;;;;;;;;;;;;;;;31.16;23.11;95664.53;10547050;28;1990;-71
2022/08/03 11:40:10;;;;;;;;;;;;;;;30.23;24.96;95661.59;10528803;28;1827;-71
2022/08/03 11:45:15;;;;;;;;;;;;;;;29.81;25.14;95663.31;10528530;28;1956;-71
2022/08/03 11:50:20;;;;;;;;;;;;;;;30.00;26.13;95662.06;10526728;28;1759;-71
2022/08/03 11:55:23;;;;;;;;;;;;;;;29.99;25.92;95655.72;10528285;28;1921;-71
2022/08/03 12:00:32;;;;;;;;;;;;;;;30.14;26.03;95654.50;10527926;28;1937;-70
2022/08/03 12:05:36;;;;;;;;;;;;;;;30.09;29.22;95649.38;10528826;28;1815;-69
2022/08/03 12:10:41;;;;;;;;;;;;;;;30.18;26.88;95646.16;10542743;28;1767;-71
2022/08/03 12:15:44;;;;;;;;;;;;;;;30.05;28.43;95642.25;10527997;28;1967;-72
2022/08/03 12:20:48;;;;;;;;;;;;;;;30.10;27.05;95633.53;10528363;28;1655;-72
2022/08/03 12:25:52;;;;;;;;;;;;;;;30.59;26.00;95626.09;10528813;28;1878;-70
2022/08/03 12:30:57;;;;;;;;;;;;;;;30.58;26.35;95621.75;10526278;28;1811;-71
2022/08/03 12:36:00;;;;;;;;;;;;;;;30.81;26.31;95624.78;10541640;28;2183;-71
2022/08/03 12:41:04;;;;;;;;;;;;;;;30.95;26.46;95621.91;10528485;28;1795;-72
2022/08/03 12:46:07;;;;;;;;;;;;;;;31.09;26.12;95623.75;10524449;28;1881;-69
2022/08/03 12:51:11;;;;;;;;;;;;;;;30.54;28.87;95624.56;10559026;27;1854;-71
2022/08/03 12:56:14;;;;;;;;;;;;;;;30.56;27.80;95610.28;10543854;28;1917;-71
2022/08/03 13:01:17;;;;;;;;;;;;;;;30.91;27.56;95610.03;10523670;28;1760;-71
2022/08/03 13:06:22;;;;;;;;;;;;;;;30.94;26.40;95608.44;10527508;28;1874;-71
2022/08/03 13:11:25;;;;;;;;;;;;;;;30.98;24.14;95609.16;10522778;28;1810;-71
2022/08/03 13:16:48;;;;;;;;;;;;;;;30.69;23.85;95608.63;10532270;28;1754;-71
2022/08/03 13:21:52;;;;;;;;;;;;;;;31.16;25.67;95607.03;10523569;28;1947;-72
2022/08/03 13:27:07;;;;;;;;;;;;;;;31.53;25.02;95601.94;10562944;27;1867;-72
2022/08/03 13:32:30;;;;;;;;;;;;;;;31.21;27.18;95601.03;10528746;28;1922;-71
2022/08/03 13:37:33;;;;;;;;;;;;;;;30.55;27.72;95603.97;10527720;28;1925;-71
2022/08/03 13:42:37;;;;;;;;;;;;;;;30.71;27.87;95588.78;10524582;28;2015;-71
2022/08/03 13:47:41;;;;;;;;;;;;;;;30.97;26.63;95590.94;10524496;28;1812;-71
2022/08/03 13:52:45;;;;;;;;;;;;;;;31.09;26.36;95586.88;10527350;28;1957;-71
2022/08/03 13:57:48;;;;;;;;;;;;;;;31.36;26.07;95578.69;10533074;28;1848;-70
2022/08/03 14:03:09;;;;;;;;;;;;;;;31.27;26.45;95570.84;10523305;28;1861;-73
2022/08/03 14:08:17;;;;;;;;;;;;;;;31.20;26.93;95560.59;10525142;28;1867;-72
2022/08/03 14:13:21;;;;;;;;;;;;;;;31.50;26.47;95570.22;10522088;28;1975;-72
2022/08/03 14:18:25;;;;;;;;;;;;;;;31.39;26.90;95569.53;10555861;27;1834;-73
2022/08/03 14:23:36;;;;;;;;;;;;;;;31.05;27.33;95564.72;10520496;28;1787;-71
2022/08/03 14:28:40;;;;;;;;;;;;;;;31.08;26.83;95552.78;10522661;28;2177;-71
2022/08/03 14:33:43;;;;;;;;;;;;;;;30.98;26.79;95547.31;10523401;28;1977;-70
2022/08/03 14:38:47;;;;;;;;;;;;;;;31.00;26.95;95558.81;10518080;28;1835;-72
2022/08/03 14:43:51;;;;;;;;;;;;;;;30.90;26.99;95558.50;10519682;28;1826;-70
2022/08/03 14:49:05;;;;;;;;;;;;;;;31.08;26.88;95552.78;10522745;28;1886;-71
2022/08/03 14:54:30;;;;;;;;;;;;;;;31.17;25.50;95539.19;10523909;28;1988;-71
2022/08/03 14:59:34;;;;;;;;;;;;;;;31.18;25.77;95545.56;10520101;28;1862;-71
2022/08/03 15:04:58;;;;;;;;;;;;;;;31.31;25.34;95543.84;10524251;28;1965;-72
2022/08/03 15:10:01;;;;;;;;;;;;;;;31.66;25.56;95533.50;10531295;28;1807;-72
2022/08/03 15:15:05;;;;;;;;;;;;;;;31.19;25.71;95541.56;10529333;28;2207;-70
2022/08/03 15:20:08;;;;;;;;;;;;;;;31.13;26.08;95526.56;10562481;27;1899;-71
2022/08/03 15:25:32;;;;;;;;;;;;;;;31.25;25.29;95525.28;10528299;28;1840;-71
2022/08/03 15:30:56;;;;;;;;;;;;;;;31.50;25.04;95530.53;10545361;28;1918;-72
2022/08/03 15:35:59;;;;;;;;;;;;;;;31.43;25.75;95528.66;10527239;28;2000;-72
2022/08/03 15:41:03;;;;;;;;;;;;;;;31.38;26.13;95531.88;10528334;28;1760;-71
2022/08/03 15:46:12;;;;;;;;;;;;;;;31.10;25.98;95522.59;10530690;28;1847;-71
2022/08/03 15:51:31;;;;;;;;;;;;;;;31.15;25.89;95524.94;10558793;27;2431;-71
2022/08/03 15:56:34;;;;;;;;;;;;;;;30.86;25.22;95520.91;10528276;28;2117;-71
2022/08/03 16:01:37;;;;;;;;;;;;;;;30.77;26.09;95515.03;10564553;27;2126;-71
2022/08/03 16:06:42;;;;;;;;;;;;;;;30.40;26.95;95519.28;10530278;28;1823;-71
2022/08/03 16:11:46;;;;;;;;;;;;;;;30.21;27.43;95517.03;10527533;28;1906;-74
2022/08/03 16:16:50;;;;;;;;;;;;;;;30.29;26.63;95513.03;10527264;28;1917;-71
2022/08/03 16:21:55;;;;;;;;;;;;;;;30.05;26.65;95515.53;10526692;28;1844;-72
2022/08/03 16:26:59;;;;;;;;;;;;;;;30.06;27.35;95511.56;10527499;28;1858;-71
2022/08/03 16:32:05;;;;;;;;;;;;;;;29.87;28.23;95515.66;10527921;28;1823;-71
2022/08/03 16:37:11;;;;;;;;;;;;;;;29.79;28.51;95514.13;10528532;28;1914;-73
2022/08/03 16:42:35;;;;;;;;;;;;;;;29.55;28.94;95510.28;10527207;28;1787;-72
2022/08/03 16:47:39;;;;;;;;;;;;;;;29.50;28.75;95513.44;10524269;28;1895;-70
2022/08/03 16:52:42;;;;;;;;;;;;;;;29.48;28.60;95513.06;10528480;28;1832;-70
2022/08/03 16:57:50;;;;;;;;;;;;;;;29.29;28.94;95519.84;10526841;28;1893;-71
2022/08/03 17:03:02;;;;;;;;;;;;;;;29.10;29.36;95509.25;10525346;28;1888;-72
2022/08/03 17:08:06;;;;;;;;;;;;;;;29.06;29.78;95516.75;10525425;28;1777;-70
2022/08/03 17:13:15;;;;;;;;;;;;;;;28.96;29.74;95518.38;10524445;28;1981;-72
2022/08/03 17:18:25;;;;;;;;;;;;;;;28.85;30.02;95516.78;10524723;28;1900;-70
2022/08/03 17:23:29;;;;;;;;;;;;;;;28.72;30.44;95525.47;10524835;28;1898;-71
2022/08/03 17:28:37;;;;;;;;;;;;;;;28.66;30.77;95518.78;10526084;28;1890;-70
2022/08/03 17:33:54;;;;;;;;;;;;;;;28.56;31.28;95525.09;10527427;28;1910;-72
2022/08/03 17:38:58;;;;;;;;;;;;;;;28.47;31.65;95530.25;10526882;28;1910;-70
2022/08/03 17:44:03;;;;;;;;;;;;;;;28.41;31.59;95532.59;10523948;28;2054;-71
2022/08/03 17:49:27;;;;;;;;;;;;;;;28.25;32.27;95532.19;10540209;28;2228;-71
2022/08/03 17:54:33;;;;;;;;;;;;;;;28.15;32.56;95535.72;10524272;28;1989;-71
2022/08/03 17:59:57;;;;;;;;;;;;;;;28.02;32.66;95541.63;10523191;28;1728;-71
2022/08/03 18:05:02;;;;;;;;;;;;;;;27.87;33.09;95542.78;10538886;28;1837;-71
2022/08/03 18:10:20;;;;;;;;;;;;;;;27.69;33.34;95548.25;10522076;28;1856;-71
2022/08/03 18:15:23;;;;;;;;;;;;;;;27.57;33.43;95556.84;10523278;28;1934;-71
2022/08/03 18:20:27;;;;;;;;;;;;;;;27.34;34.32;95559.09;10523825;28;1759;-71
2022/08/03 18:25:40;;;;;;;;;;;;;;;27.28;34.16;95555.13;10523878;28;1946;-73
2022/08/03 18:30:56;;;;;;;;;;;;;;;27.02;34.87;95558.91;10556963;27;1782;-70
2022/08/03 18:35:59;;;;;;;;;;;;;;;26.71;35.65;95555.53;10523246;28;1910;-71
2022/08/03 18:41:03;;;;;;;;;;;;;;;26.60;36.34;95565.72;10522094;28;1842;-70
2022/08/03 18:46:19;;;;;;;;;;;;;;;26.47;36.50;95559.72;10539569;28;1855;-70
2022/08/03 18:51:22;;;;;;;;;;;;;;;26.21;37.36;95574.41;10527797;28;1743;-71
2022/08/03 18:56:37;;;;;;;;;;;;;;;26.13;37.60;95572.75;10526000;28;1906;-71
2022/08/03 19:01:41;;;;;;;;;;;;;;;25.95;38.33;95577.28;10523332;28;1826;-71
2022/08/03 19:07:04;;;;;;;;;;;;;;;25.72;38.97;95575.44;10527267;28;1846;-73
2022/08/03 19:12:12;;;;;;;;;;;;;;;25.73;39.26;95585.31;10517676;28;1867;-70
2022/08/03 19:17:33;;;;;;;;;;;;;;;25.59;39.12;95587.88;10522569;28;1910;-70
2022/08/03 19:22:38;;;;;;;;;;;;;;;25.44;39.94;95584.13;10517630;28;1907;-69
2022/08/03 19:27:47;;;;;;;;;;;;;;;25.31;40.01;95586.31;10520638;28;1973;-71
2022/08/03 19:32:51;;;;;;;;;;;;;;;25.21;40.57;95592.47;10521704;28;1929;-71
2022/08/03 19:37:55;;;;;;;;;;;;;;;25.14;40.96;95597.88;10521784;28;1986;-70
2022/08/03 19:43:02;;;;;;;;;;;;;;;24.91;41.96;95602.63;10522562;28;1822;-70
2022/08/03 19:48:07;;;;;;;;;;;;;;;24.71;42.61;95602.72;10514443;28;1764;-71
2022/08/03 19:53:12;;;;;;;;;;;;;;;24.61;42.87;95603.31;10524547;28;1891;-70
2022/08/03 19:58:15;;;;;;;;;;;;;;;24.56;43.38;95595.41;10525577;28;1975;-71
2022/08/03 20:03:30;;;;;;;;;;;;;;;24.42;43.71;95600.66;10560457;27;1842;-70
2022/08/03 20:08:45;;;;;;;;;;;;;;;24.32;44.26;95593.78;10529848;28;1796;-71
2022/08/03 20:13:53;;;;;;;;;;;;;;;24.27;44.89;95597.63;10529374;28;1910;-71
2022/08/03 20:18:57;;;;;;;;;;;;;;;24.06;45.68;95594.50;10528912;28;1863;-71
2022/08/03 20:24:02;;;;;;;;;;;;;;;23.90;46.35;95602.03;10525906;28;1831;-71
2022/08/03 20:29:26;;;;;;;;;;;;;;;23.86;46.71;95596.50;10527948;28;1827;-71
2022/08/03 20:34:51;;;;;;;;;;;;;;;23.77;47.27;95589.63;10526544;28;1942;-72
2022/08/03 20:39:55;;;;;;;;;;;;;;;23.67;47.60;95593.78;10527837;28;1897;-74
2022/08/03 20:44:59;;;;;;;;;;;;;;;23.54;48.29;95595.84;10528293;28;1783;-72
2022/08/03 20:50:08;;;;;;;;;;;;;;;23.45;48.63;95596.03;10542203;28;1826;-70
2022/08/03 20:55:13;;;;;;;;;;;;;;;23.43;48.87;95600.31;10528894;28;1956;-69
2022/08/03 21:00:18;;;;;;;;;;;;;;;23.40;49.32;95598.25;10522846;28;1815;-73
2022/08/03 21:05:25;;;;;;;;;;;;;;;23.30;49.77;95591.41;10526620;28;2059;-73
2022/08/03 21:10:48;;;;;;;;;;;;;;;23.15;50.47;95601.25;10525383;28;1863;-71
2022/08/03 21:15:53;;;;;;;;;;;;;;;23.08;50.99;95584.66;10525771;28;1976;-71
2022/08/03 21:21:16;;;;;;;;;;;;;;;23.17;50.67;95593.50;10538652;28;1833;-71
2022/08/03 21:26:20;;;;;;;;;;;;;;;23.17;51.25;95593.50;10526820;28;1899;-71
2022/08/03 21:31:23;;;;;;;;;;;;;;;23.16;51.50;95588.38;10526867;28;1780;-72
2022/08/03 21:36:29;;;;;;;;;;;;;;;23.11;51.85;95589.44;10527385;28;1917;-72
2022/08/03 21:41:32;;;;;;;;;;;;;;;23.02;52.49;95583.34;10531734;28;1799;-71
2022/08/03 21:46:42;;;;;;;;;;;;;;;23.08;52.82;95579.19;10531920;28;1898;-72
2022/08/03 21:51:46;;;;;;;;;;;;;;;22.97;53.64;95577.34;10526271;28;1894;-71
2022/08/03 21:56:50;;;;;;;;;;;;;;;22.91;54.18;95590.56;10522518;28;2016;-71
2022/08/03 22:01:54;;;;;;;;;;;;;;;22.84;54.50;95582.94;10525227;28;1856;-71
2022/08/03 22:07:00;;;;;;;;;;;;;;;22.83;54.78;95583.28;10525361;28;1894;-71
2022/08/03 22:12:05;;;;;;;;;;;;;;;22.62;55.65;95584.38;10522415;28;2066;-72
2022/08/03 22:17:08;;;;;;;;;;;;;;;22.55;56.56;95576.00;10522234;28;1988;-72
2022/08/03 22:22:13;;;;;;;;;;;;;;;22.39;57.74;95576.03;10524229;28;1902;-70
2022/08/03 22:27:33;;;;;;;;;;;;;;;22.27;58.59;95578.84;10522889;28;2261;-70
2022/08/03 22:32:36;;;;;;;;;;;;;;;22.32;59.23;95583.25;10523110;28;1875;-71
2022/08/03 22:37:40;;;;;;;;;;;;;;;22.18;60.04;95580.16;10524619;28;1891;-70
2022/08/03 22:42:44;;;;;;;;;;;;;;;22.12;60.66;95577.66;10522115;28;1910;-70
2022/08/03 22:47:48;;;;;;;;;;;;;;;21.89;62.06;95579.41;10522331;28;2621;-70
2022/08/03 22:52:52;;;;;;;;;;;;;;;21.84;62.40;95587.84;10520196;28;1968;-71
2022/08/03 22:57:55;;;;;;;;;;;;;;;21.79;62.58;95574.41;10519999;28;1902;-71
2022/08/03 23:02:59;;;;;;;;;;;;;;;21.64;63.42;95583.41;10521703;28;1874;-71
2022/08/03 23:08:03;;;;;;;;;;;;;;;21.57;64.25;95587.53;10521332;28;1788;-71
2022/08/03 23:13:06;;;;;;;;;;;;;;;21.55;64.58;95578.84;10520854;28;1839;-70
2022/08/03 23:18:10;;;;;;;;;;;;;;;21.50;65.26;95584.59;10520940;28;1983;-70
2022/08/03 23:23:13;;;;;;;;;;;;;;;21.32;66.17;95583.28;10520444;28;1859;-71
2022/08/03 23:28:21;;;;;;;;;;;;;;;21.30;66.94;95574.63;10527466;28;1835;-71
2022/08/03 23:33:25;;;;;;;;;;;;;;;21.23;67.71;95579.84;10530712;28;1830;-70
2022/08/03 23:38:29;;;;;;;;;;;;;;;21.20;67.95;95580.56;10528769;28;1909;-71
2022/08/03 23:43:32;;;;;;;;;;;;;;;21.09;69.22;95582.19;10530046;28;1831;-71
2022/08/03 23:48:56;;;;;;;;;;;;;;;21.04;69.01;95570.34;10523761;28;1960;-70
2022/08/03 23:53:59;;;;;;;;;;;;;;;20.91;70.48;95573.44;10528258;28;1744;-71
2022/08/03 23:59:04;;;;;;;;;;;;;;;20.94;70.14;95572.78;10532062;28;1918;-70
